Butuan, Philippines
Current Conditions -  °F | °C
As of 6:00 AM on Tuesday 25 Nov 2014 (Local Time) from RPMD Reporting Station
Broken Clouds Broken Clouds  
Wind Chill: 75°   Ceiling: 29000
Heat Index: 75°   Visibility: 6mi
Dew Point: 73°   Wind: 3mph
Humidity: 94%   Direction: 30°NNE
Pressure: 29.77"   Gusts: NA
Location:  8.93°N, 125.52°E
Report Text: RPMD 242200Z 03003KT 9999 FEW016 BKN290 24/23 Q1008 RMK A2977
Loading
Personal Weather Stations






























Interactive Weather Map New forecast layout! Learn more

10-Day Weather Forecast

Advertisements
Track Severe Weather on mobile